createdAt,value
2023-12-30T00:00:25.067Z,99288.91
2023-12-30T00:02:52.111Z,99286.50
2023-12-30T00:05:19.169Z,99290.28
2023-12-30T00:07:46.130Z,99300.59
2023-12-30T00:10:12.946Z,99288.19
2023-12-30T00:12:39.534Z,99288.78
2023-12-30T00:15:06.787Z,99285.47
2023-12-30T00:17:33.445Z,99296.78
2023-12-30T00:20:00.117Z,99290.38
2023-12-30T00:22:28.636Z,99282.06
2023-12-30T00:24:55.684Z,99293.47
2023-12-30T00:27:22.315Z,99288.06
2023-12-30T00:29:50.869Z,99291.06
2023-12-30T00:32:17.918Z,99284.56
2023-12-30T00:34:44.650Z,99280.44
2023-12-30T00:37:11.344Z,99286.44
2023-12-30T00:39:40.949Z,99285.66
2023-12-30T00:42:07.532Z,99290.03
2023-12-30T00:44:34.048Z,99290.63
2023-12-30T00:47:00.530Z,99285.72
2023-12-30T00:49:27.066Z,99285.44
2023-12-30T00:51:53.620Z,99278.44
2023-12-30T00:54:20.223Z,99281.13
2023-12-30T00:56:47.357Z,99274.72
2023-12-30T00:59:13.968Z,99289.00
2023-12-30T01:01:40.655Z,99276.63
2023-12-30T01:04:07.366Z,99283.03
2023-12-30T01:06:34.127Z,99287.03
2023-12-30T01:09:01.894Z,99276.63
2023-12-30T01:11:28.428Z,99289.59
2023-12-30T01:13:54.923Z,99285.22
2023-12-30T01:16:21.448Z,99283.03
2023-12-30T01:18:48.157Z,99289.47
2023-12-30T01:21:14.851Z,99301.88
2023-12-30T01:23:41.394Z,99302.88
2023-12-30T01:26:07.894Z,99304.47
2023-12-30T01:28:35.406Z,99301.78
2023-12-30T01:31:02.186Z,99308.28
2023-12-30T01:33:28.922Z,99305.06
2023-12-30T01:35:56.391Z,99319.16
2023-12-30T01:38:22.861Z,99311.13
2023-12-30T01:40:49.473Z,99314.41
2023-12-30T01:43:25.802Z,99311.22
2023-12-30T01:45:57.198Z,99316.19
2023-12-30T01:48:24.193Z,99325.66
2023-12-30T01:50:53.127Z,99317.88
2023-12-30T01:53:20.722Z,99318.38
2023-12-30T01:55:51.295Z,99315.09
2023-12-30T01:58:19.683Z,99321.06
2023-12-30T02:00:49.884Z,99322.69
2023-12-30T02:03:17.162Z,99314.06
2023-12-30T02:05:43.955Z,99324.91
2023-12-30T02:08:10.799Z,99322.53
2023-12-30T02:10:37.569Z,99321.72
2023-12-30T02:13:04.813Z,99326.09
2023-12-30T02:15:31.667Z,99313.47
2023-12-30T02:17:58.433Z,99312.69
2023-12-30T02:20:26.141Z,99314.88
2023-12-30T02:22:52.793Z,99316.56
2023-12-30T02:25:19.428Z,99318.22
2023-12-30T02:27:46.943Z,99307.22
2023-12-30T02:30:14.637Z,99327.19
2023-12-30T02:32:41.736Z,99328.56
2023-12-30T02:35:08.946Z,99337.16
2023-12-30T02:37:35.475Z,99334.25
2023-12-30T02:40:02.154Z,99343.72
2023-12-30T02:42:28.732Z,99324.91
2023-12-30T02:44:55.294Z,99333.75
2023-12-30T02:47:21.820Z,99339.44
2023-12-30T02:49:48.421Z,99350.50
2023-12-30T02:52:15.030Z,99347.00
2023-12-30T02:54:41.703Z,99351.53
2023-12-30T02:57:08.249Z,99353.34
2023-12-30T02:59:34.803Z,99353.00
2023-12-30T03:02:01.415Z,99341.94
2023-12-30T03:04:28.182Z,99337.63
2023-12-30T03:06:54.827Z,99339.66
2023-12-30T03:09:21.418Z,99343.38
2023-12-30T03:11:47.976Z,99349.28
2023-12-30T03:14:14.609Z,99342.88
2023-12-30T03:16:41.204Z,99345.00
2023-12-30T03:19:07.850Z,99346.91
2023-12-30T03:21:34.557Z,99346.59
2023-12-30T03:24:01.102Z,99344.13
2023-12-30T03:26:27.678Z,99346.00
2023-12-30T03:28:54.206Z,99341.13
2023-12-30T03:31:25.551Z,99351.13
2023-12-30T03:33:52.399Z,99351.91
2023-12-30T03:36:19.085Z,99347.59
2023-12-30T03:38:48.136Z,99346.81
2023-12-30T03:41:14.917Z,99354.34
2023-12-30T03:43:41.547Z,99344.34
2023-12-30T03:46:08.279Z,99348.94
2023-12-30T03:48:34.963Z,99349.75
2023-12-30T03:51:01.470Z,99347.56
2023-12-30T03:53:27.990Z,99361.25
2023-12-30T03:55:54.534Z,99351.78
2023-12-30T03:58:21.412Z,99360.16
2023-12-30T04:00:48.059Z,99350.19
2023-12-30T04:03:14.674Z,99349.38
2023-12-30T04:05:41.711Z,99348.16
2023-12-30T04:08:08.301Z,99331.72
2023-12-30T04:10:35.481Z,99343.63
2023-12-30T04:13:02.427Z,99348.16
2023-12-30T04:15:29.939Z,99350.19
2023-12-30T04:17:56.516Z,99339.63
2023-12-30T04:20:23.058Z,99342.59
2023-12-30T04:22:49.553Z,99346.38
2023-12-30T04:25:16.109Z,99341.56
2023-12-30T04:27:42.663Z,99352.56
2023-12-30T04:30:09.532Z,99356.00
2023-12-30T04:32:36.188Z,99335.41
2023-12-30T04:35:02.884Z,99345.06
2023-12-30T04:37:29.444Z,99337.75
2023-12-30T04:39:56.047Z,99336.97
2023-12-30T04:42:22.616Z,99338.78
2023-12-30T04:44:49.127Z,99340.59
2023-12-30T04:47:15.616Z,99345.00
2023-12-30T04:49:42.177Z,99356.28
2023-12-30T04:52:08.814Z,99350.31
2023-12-30T04:54:36.065Z,99348.34
2023-12-30T04:57:02.603Z,99347.16
2023-12-30T04:59:29.506Z,99353.16
2023-12-30T05:01:56.087Z,99353.94
2023-12-30T05:04:23.317Z,99355.56
2023-12-30T05:06:51.722Z,99359.94
2023-12-30T05:09:18.371Z,99359.34
2023-12-30T05:11:45.755Z,99359.13
2023-12-30T05:14:12.627Z,99363.13
2023-12-30T05:16:46.724Z,99364.19
2023-12-30T05:19:14.221Z,99362.56
2023-12-30T05:21:42.751Z,99356.94
2023-12-30T05:24:09.858Z,99352.31
2023-12-30T05:26:36.431Z,99352.91
2023-12-30T05:29:03.062Z,99354.03
2023-12-30T05:31:29.626Z,99364.31
2023-12-30T05:33:56.428Z,99365.91
2023-12-30T05:36:23.229Z,99364.31
2023-12-30T05:38:49.811Z,99376.72
2023-12-30T05:41:16.394Z,99373.16
2023-12-30T05:43:43.033Z,99379.16
2023-12-30T05:46:15.748Z,99374.53
2023-12-30T05:48:42.809Z,99376.72
2023-12-30T05:51:09.337Z,99374.38
2023-12-30T05:53:35.826Z,99371.13
2023-12-30T05:56:02.349Z,99378.22
2023-12-30T05:58:30.320Z,99369.81
2023-12-30T06:00:56.949Z,99361.50
2023-12-30T06:03:23.598Z,99368.13
2023-12-30T06:05:50.120Z,99365.41
2023-12-30T06:08:18.568Z,99380.34
2023-12-30T06:10:50.527Z,99375.81
2023-12-30T06:13:17.187Z,99367.31
2023-12-30T06:15:48.965Z,99383.34
2023-12-30T06:18:15.577Z,99378.41
2023-12-30T06:20:45.773Z,99373.19
2023-12-30T06:23:12.403Z,99376.78
2023-12-30T06:25:39.364Z,99381.41
2023-12-30T06:28:06.370Z,99391.44
2023-12-30T06:30:32.969Z,99393.81
2023-12-30T06:33:00.749Z,99383.31
2023-12-30T06:35:27.507Z,99385.91
2023-12-30T06:37:54.105Z,99389.72
2023-12-30T06:40:20.656Z,99397.38
2023-12-30T06:42:48.540Z,99394.06
2023-12-30T06:45:15.198Z,99402.28
2023-12-30T06:47:43.680Z,99393.97
2023-12-30T06:50:13.279Z,99403.91
2023-12-30T06:52:39.831Z,99396.44
2023-12-30T06:55:17.992Z,99407.28
2023-12-30T06:57:47.830Z,99410.09
2023-12-30T07:00:14.677Z,99411.69
2023-12-30T07:02:42.893Z,99409.91
2023-12-30T07:05:10.018Z,99406.09
2023-12-30T07:07:37.012Z,99408.69
2023-12-30T07:10:07.152Z,99411.28
2023-12-30T07:12:34.105Z,99412.28
2023-12-30T07:15:00.743Z,99422.25
2023-12-30T07:17:27.852Z,99417.94
2023-12-30T07:19:54.582Z,99428.13
2023-12-30T07:22:21.329Z,99428.06
2023-12-30T07:24:50.438Z,99426.63
2023-12-30T07:27:16.989Z,99430.00
2023-12-30T07:29:43.510Z,99448.41
2023-12-30T07:32:10.029Z,99438.28
2023-12-30T07:34:36.661Z,99441.84
2023-12-30T07:37:03.829Z,99442.94
2023-12-30T07:39:30.527Z,99444.09
2023-12-30T07:41:57.240Z,99445.88
2023-12-30T07:44:23.795Z,99448.56
2023-12-30T07:46:50.303Z,99443.69
2023-12-30T07:49:18.453Z,99445.06
2023-12-30T07:51:45.304Z,99448.44
2023-12-30T07:54:12.095Z,99437.75
2023-12-30T07:56:38.595Z,99440.19
2023-12-30T07:59:05.216Z,99443.66
2023-12-30T08:01:31.888Z,99447.69
2023-12-30T08:03:58.861Z,99450.16
2023-12-30T08:06:25.734Z,99452.94
2023-12-30T08:08:52.269Z,99450.97
2023-12-30T08:11:18.948Z,99462.00
2023-12-30T08:13:45.512Z,99454.63
2023-12-30T08:16:12.267Z,99464.06
2023-12-30T08:18:38.985Z,99454.75
2023-12-30T08:21:05.651Z,99455.88
2023-12-30T08:23:32.202Z,99453.25
2023-12-30T08:25:58.740Z,99450.63
2023-12-30T08:28:25.341Z,99451.63
2023-12-30T08:30:55.122Z,99453.75
2023-12-30T08:33:22.171Z,99442.44
2023-12-30T08:35:50.429Z,99445.66
2023-12-30T08:38:19.702Z,99440.47
2023-12-30T08:40:46.613Z,99445.06
2023-12-30T08:43:13.614Z,99445.88
2023-12-30T08:45:40.186Z,99439.66
2023-12-30T08:48:07.640Z,99452.56
2023-12-30T08:50:34.364Z,99445.78
2023-12-30T08:53:01.249Z,99458.72
2023-12-30T08:55:28.314Z,99456.78
2023-12-30T08:57:54.931Z,99451.97
2023-12-30T09:00:21.612Z,99460.56
2023-12-30T09:02:48.885Z,99459.47
2023-12-30T09:05:21.335Z,99452.97
2023-12-30T09:07:52.523Z,99454.59
2023-12-30T09:10:19.929Z,99461.00
2023-12-30T09:12:46.922Z,99457.13
2023-12-30T09:15:13.603Z,99464.44
2023-12-30T09:17:40.386Z,99471.72
2023-12-30T09:20:07.431Z,99463.13
2023-12-30T09:22:34.066Z,99470.03
2023-12-30T09:25:01.318Z,99472.00
2023-12-30T09:27:27.971Z,99473.50
2023-12-30T09:29:54.494Z,99472.94
2023-12-30T09:32:21.021Z,99474.84
2023-12-30T09:34:47.591Z,99475.22
2023-12-30T09:37:16.152Z,99476.22
2023-12-30T09:39:43.630Z,99472.22
2023-12-30T09:42:10.375Z,99485.53
2023-12-30T09:44:38.595Z,99488.72
2023-12-30T09:47:09.038Z,99488.66
2023-12-30T09:49:38.875Z,99488.94
2023-12-30T09:52:08.546Z,99485.34
2023-12-30T09:54:45.344Z,99484.97
2023-12-30T09:57:15.737Z,99486.88
2023-12-30T09:59:42.895Z,99480.56
2023-12-30T10:02:11.202Z,99472.59
2023-12-30T10:04:38.577Z,99488.03
2023-12-30T10:07:06.346Z,99492.13
2023-12-30T10:09:33.192Z,99483.78
2023-12-30T10:11:59.782Z,99486.72
2023-12-30T10:14:26.654Z,99481.41
2023-12-30T10:16:53.219Z,99481.03
2023-12-30T10:19:19.927Z,99476.72
2023-12-30T10:21:46.565Z,99487.25
2023-12-30T10:24:13.114Z,99475.13
2023-12-30T10:26:41.117Z,99463.81
2023-12-30T10:29:09.137Z,99468.13
2023-12-30T10:31:35.765Z,99464.91
2023-12-30T10:34:02.909Z,99460.41
2023-12-30T10:36:29.756Z,99456.72
2023-12-30T10:38:56.701Z,99467.34
2023-12-30T10:41:23.275Z,99461.03
2023-12-30T10:43:49.880Z,99459.94
2023-12-30T10:46:19.696Z,99464.25
2023-12-30T10:48:57.114Z,99455.13
2023-12-30T10:51:31.778Z,99452.63
2023-12-30T10:54:08.493Z,99450.19
2023-12-30T10:56:41.755Z,99440.97
2023-12-30T10:59:08.894Z,99442.78
2023-12-30T11:01:37.540Z,99438.28
2023-12-30T11:04:12.596Z,99438.97
2023-12-30T11:06:45.657Z,99434.56
2023-12-30T11:09:14.486Z,99423.72
2023-12-30T11:12:02.887Z,99422.13
2023-12-30T11:14:29.633Z,99425.94
2023-12-30T11:16:58.491Z,99419.13
2023-12-30T11:19:30.205Z,99423.94
2023-12-30T11:21:59.783Z,99419.50
2023-12-30T11:24:27.637Z,99412.69
2023-12-30T11:26:55.525Z,99405.69
2023-12-30T11:29:27.562Z,99409.28
2023-12-30T11:31:56.221Z,99397.47
2023-12-30T11:34:25.359Z,99402.69
2023-12-30T11:36:54.618Z,99398.47
2023-12-30T11:39:29.382Z,99394.84
2023-12-30T11:42:01.419Z,99395.84
2023-12-30T11:44:29.010Z,99392.88
2023-12-30T11:46:55.703Z,99386.84
2023-12-30T11:49:24.029Z,99384.25
2023-12-30T11:51:51.167Z,99388.63
2023-12-30T11:54:19.127Z,99390.22
2023-12-30T11:56:46.851Z,99382.53
2023-12-30T11:59:13.638Z,99385.41
2023-12-30T12:01:40.887Z,99371.28
2023-12-30T12:04:09.587Z,99375.22
2023-12-30T12:06:37.253Z,99367.59
2023-12-30T12:09:05.340Z,99368.19
2023-12-30T12:11:32.059Z,99365.97
2023-12-30T12:14:02.882Z,99366.41
2023-12-30T12:16:33.551Z,99365.59
2023-12-30T12:19:04.167Z,99360.28
2023-12-30T12:21:31.003Z,99371.44
2023-12-30T12:23:57.993Z,99360.00
2023-12-30T12:26:25.900Z,99351.16
2023-12-30T12:28:54.476Z,99347.84
2023-12-30T12:31:21.107Z,99351.25
2023-12-30T12:33:47.675Z,99338.72
2023-12-30T12:36:14.309Z,99341.78
2023-12-30T12:38:40.846Z,99347.41
2023-12-30T12:41:07.704Z,99342.50
2023-12-30T12:43:35.016Z,99340.28
2023-12-30T12:46:04.013Z,99344.09
2023-12-30T12:48:30.955Z,99339.50
2023-12-30T12:50:57.598Z,99344.50
2023-12-30T12:53:24.678Z,99348.44
2023-12-30T12:55:51.375Z,99340.72
2023-12-30T12:58:18.109Z,99335.63
2023-12-30T13:00:44.986Z,99340.09
2023-12-30T13:03:12.124Z,99334.91
2023-12-30T13:05:39.005Z,99342.13
2023-12-30T13:08:05.923Z,99329.47
2023-12-30T13:10:35.173Z,99324.28
2023-12-30T13:13:02.303Z,99322.06
2023-12-30T13:15:29.074Z,99319.13
2023-12-30T13:17:55.792Z,99312.69
2023-12-30T13:20:22.440Z,99304.16
2023-12-30T13:22:57.538Z,99305.97
2023-12-30T13:25:29.304Z,99292.53
2023-12-30T13:27:56.208Z,99292.97
2023-12-30T13:30:24.308Z,99296.31
2023-12-30T13:32:58.901Z,99297.63
2023-12-30T13:35:38.302Z,99295.53
2023-12-30T13:38:12.565Z,99289.13
2023-12-30T13:40:46.212Z,99280.19
2023-12-30T13:43:13.338Z,99273.69
2023-12-30T13:45:47.601Z,99277.09
2023-12-30T13:48:33.631Z,99280.22
2023-12-30T13:51:02.417Z,99279.84
2023-12-30T13:53:29.487Z,99292.16
2023-12-30T13:56:07.144Z,99272.34
2023-12-30T13:58:34.632Z,99280.38
2023-12-30T14:01:01.580Z,99280.78
2023-12-30T14:03:28.785Z,99277.00
2023-12-30T14:05:56.000Z,99282.81
2023-12-30T14:08:36.840Z,99280.22
2023-12-30T14:11:08.954Z,99273.41
2023-12-30T14:13:35.980Z,99268.78
2023-12-30T14:16:02.583Z,99271.81
2023-12-30T14:18:29.385Z,99270.00
2023-12-30T14:20:56.053Z,99276.31
2023-12-30T14:23:22.559Z,99273.41
2023-12-30T14:25:49.113Z,99270.31
2023-12-30T14:28:15.983Z,99269.03
2023-12-30T14:30:44.000Z,99256.41
2023-12-30T14:33:10.656Z,99265.28
2023-12-30T14:35:37.616Z,99260.19
2023-12-30T14:38:05.911Z,99257.59
2023-12-30T14:40:32.570Z,99256.00
2023-12-30T14:42:59.199Z,99250.78
2023-12-30T14:45:25.689Z,99250.78
2023-12-30T14:47:52.234Z,99248.16
2023-12-30T14:50:18.875Z,99252.19
2023-12-30T14:52:45.687Z,99255.06
2023-12-30T14:55:12.609Z,99255.38
2023-12-30T14:57:40.628Z,99253.38
2023-12-30T15:00:12.416Z,99252.66
2023-12-30T15:02:39.191Z,99234.69
2023-12-30T15:05:06.582Z,99242.41
2023-12-30T15:07:33.240Z,99242.91
2023-12-30T15:09:59.976Z,99239.91
2023-12-30T15:12:26.896Z,99235.38
2023-12-30T15:14:53.439Z,99228.06
2023-12-30T15:17:20.128Z,99229.66
2023-12-30T15:19:47.099Z,99214.72
2023-12-30T15:22:14.316Z,99215.00
2023-12-30T15:24:40.885Z,99211.03
2023-12-30T15:27:07.383Z,99203.53
2023-12-30T15:29:33.873Z,99204.81
2023-12-30T15:32:01.504Z,99204.63
2023-12-30T15:34:28.550Z,99200.34
2023-12-30T15:36:55.147Z,99201.94
2023-12-30T15:39:21.722Z,99192.22
2023-12-30T15:41:48.369Z,99194.91
2023-12-30T15:44:15.474Z,99199.50
2023-12-30T15:46:42.069Z,99184.50
2023-12-30T15:49:10.372Z,99182.22
2023-12-30T15:51:37.255Z,99186.03
2023-12-30T15:54:04.287Z,99175.81
2023-12-30T15:56:30.835Z,99178.16
2023-12-30T15:58:57.414Z,99177.03
2023-12-30T16:01:23.973Z,99179.44
2023-12-30T16:03:50.803Z,99177.53
2023-12-30T16:06:17.550Z,99173.84
2023-12-30T16:08:44.447Z,99179.44
2023-12-30T16:11:11.242Z,99162.22
2023-12-30T16:13:39.702Z,99165.66
2023-12-30T16:16:06.794Z,99159.06
2023-12-30T16:18:33.445Z,99161.88
2023-12-30T16:21:00.041Z,99149.03
2023-12-30T16:23:26.854Z,99146.97
2023-12-30T16:25:53.363Z,99135.66
2023-12-30T16:28:19.935Z,99136.44
2023-12-30T16:30:46.993Z,99141.69
2023-12-30T16:33:13.673Z,99141.84
2023-12-30T16:35:40.395Z,99130.56
2023-12-30T16:38:06.954Z,99129.44
2023-12-30T16:40:33.705Z,99133.06
2023-12-30T16:43:00.388Z,99132.44
2023-12-30T16:45:27.032Z,99135.03
2023-12-30T16:47:53.836Z,99127.41
2023-12-30T16:50:20.760Z,99136.63
2023-12-30T16:52:47.387Z,99123.59
2023-12-30T16:55:14.248Z,99117.59
2023-12-30T16:57:40.823Z,99112.31
2023-12-30T17:00:10.432Z,99121.84
2023-12-30T17:02:38.104Z,99114.88
2023-12-30T17:05:05.065Z,99114.59
2023-12-30T17:07:31.747Z,99123.50
2023-12-30T17:09:59.570Z,99116.47
2023-12-30T17:12:26.181Z,99121.59
2023-12-30T17:14:52.703Z,99114.78
2023-12-30T17:17:19.243Z,99113.38
2023-12-30T17:19:45.956Z,99114.19
2023-12-30T17:22:12.963Z,99105.38
2023-12-30T17:24:39.649Z,99099.69
2023-12-30T17:27:06.533Z,99093.56
2023-12-30T17:29:33.435Z,99095.59
2023-12-30T17:31:59.978Z,99095.59
2023-12-30T17:34:26.641Z,99091.78
2023-12-30T17:36:53.149Z,99096.69
2023-12-30T17:39:19.734Z,99095.59
2023-12-30T17:41:46.255Z,99095.28
2023-12-30T17:44:12.862Z,99091.78
2023-12-30T17:46:39.475Z,99090.66
2023-12-30T17:49:06.468Z,99083.66
2023-12-30T17:51:33.050Z,99092.47
2023-12-30T17:53:59.610Z,99084.03
2023-12-30T17:56:26.187Z,99092.16
2023-12-30T17:58:54.366Z,99085.63
2023-12-30T18:01:20.938Z,99089.34
2023-12-30T18:03:47.655Z,99088.88
2023-12-30T18:06:14.208Z,99092.22
2023-12-30T18:08:40.728Z,99094.63
2023-12-30T18:11:07.323Z,99085.72
2023-12-30T18:13:34.036Z,99081.72
2023-12-30T18:16:00.820Z,99086.16
2023-12-30T18:18:27.611Z,99080.53
2023-12-30T18:20:54.157Z,99078.63
2023-12-30T18:23:20.779Z,99075.94
2023-12-30T18:25:47.302Z,99071.13
2023-12-30T18:28:13.887Z,99074.44
2023-12-30T18:30:42.544Z,99071.38
2023-12-30T18:33:11.512Z,99071.00
2023-12-30T18:35:39.847Z,99062.97
2023-12-30T18:38:06.392Z,99067.72
2023-12-30T18:40:35.681Z,99062.41
2023-12-30T18:43:02.556Z,99056.31
2023-12-30T18:45:29.217Z,99064.97
2023-12-30T18:47:55.784Z,99064.81
2023-12-30T18:50:22.648Z,99060.78
2023-12-30T18:52:50.699Z,99056.13
2023-12-30T18:55:17.405Z,99060.81
2023-12-30T18:57:44.017Z,99069.81
2023-12-30T19:00:11.220Z,99064.03
2023-12-30T19:02:41.461Z,99064.63
2023-12-30T19:05:09.998Z,99058.22
2023-12-30T19:07:36.958Z,99063.03
2023-12-30T19:10:05.931Z,99058.84
2023-12-30T19:12:32.608Z,99058.13
2023-12-30T19:14:59.414Z,99049.03
2023-12-30T19:17:27.984Z,99048.00
2023-12-30T19:19:54.793Z,99043.19
2023-12-30T19:22:21.455Z,99041.59
2023-12-30T19:24:47.993Z,99031.91
2023-12-30T19:27:14.484Z,99031.41
2023-12-30T19:29:41.000Z,99017.41
2023-12-30T19:32:07.739Z,99019.84
2023-12-30T19:34:34.328Z,99017.91
2023-12-30T19:37:01.224Z,99021.13
2023-12-30T19:39:27.718Z,99007.94
2023-12-30T19:41:54.250Z,99013.13
2023-12-30T19:44:20.884Z,99013.72
2023-12-30T19:46:47.529Z,99007.81
2023-12-30T19:49:16.521Z,99008.22
2023-12-30T19:51:43.170Z,98993.22
2023-12-30T19:54:09.645Z,99001.69
2023-12-30T19:56:36.539Z,98992.63
2023-12-30T19:59:03.761Z,98985.13
2023-12-30T20:01:31.651Z,98993.00
2023-12-30T20:03:58.279Z,98979.59
2023-12-30T20:06:24.917Z,98985.88
2023-12-30T20:08:51.420Z,98985.38
2023-12-30T20:11:17.924Z,98981.97
2023-12-30T20:13:44.443Z,98972.59
2023-12-30T20:16:12.477Z,98980.09
2023-12-30T20:18:39.226Z,98967.97
2023-12-30T20:21:06.461Z,98969.38
2023-12-30T20:23:35.480Z,98966.66
2023-12-30T20:26:02.583Z,98969.97
2023-12-30T20:28:29.156Z,98964.56
2023-12-30T20:30:56.044Z,98967.75
2023-12-30T20:33:22.683Z,98974.75
2023-12-30T20:35:49.640Z,98973.69
2023-12-30T20:38:16.718Z,98968.06
2023-12-30T20:40:46.691Z,98958.69
2023-12-30T20:43:13.684Z,98961.97
2023-12-30T20:45:44.240Z,98962.56
2023-12-30T20:48:10.933Z,98965.53
2023-12-30T20:50:38.289Z,98958.38
2023-12-30T20:53:06.588Z,98958.69
2023-12-30T20:55:33.455Z,98949.31
2023-12-30T20:58:00.332Z,98947.50
2023-12-30T21:00:26.846Z,98938.13
2023-12-30T21:02:53.447Z,98937.09
2023-12-30T21:05:20.179Z,98936.28
2023-12-30T21:07:46.792Z,98938.47
2023-12-30T21:10:14.947Z,98936.88
2023-12-30T21:12:41.467Z,98931.81
2023-12-30T21:15:08.350Z,98928.81
2023-12-30T21:17:34.912Z,98925.31
2023-12-30T21:20:01.413Z,98922.13
2023-12-30T21:22:29.799Z,98916.53
2023-12-30T21:24:56.457Z,98921.09
2023-12-30T21:27:23.326Z,98917.13
2023-12-30T21:29:49.861Z,98916.28
2023-12-30T21:32:16.446Z,98906.94
2023-12-30T21:34:43.397Z,98900.72
2023-12-30T21:37:10.653Z,98902.31
2023-12-30T21:39:37.229Z,98900.13
2023-12-30T21:42:04.027Z,98882.97
2023-12-30T21:44:31.681Z,98878.66
2023-12-30T21:46:58.256Z,98870.09
2023-12-30T21:49:25.527Z,98870.69
2023-12-30T21:51:52.055Z,98861.59
2023-12-30T21:54:18.633Z,98858.47
2023-12-30T21:56:45.136Z,98851.19
2023-12-30T21:59:12.054Z,98850.28
2023-12-30T22:01:38.864Z,98843.75
2023-12-30T22:04:06.229Z,98846.44
2023-12-30T22:06:33.410Z,98842.06
2023-12-30T22:08:59.922Z,98845.34
2023-12-30T22:11:28.243Z,98841.06
2023-12-30T22:13:54.992Z,98831.44
2023-12-30T22:16:21.617Z,98824.06
2023-12-30T22:18:48.277Z,98822.53
2023-12-30T22:21:17.594Z,98816.16
2023-12-30T22:23:44.285Z,98813.03
2023-12-30T22:26:10.860Z,98815.22
2023-12-30T22:28:38.273Z,98808.03
2023-12-30T22:31:11.391Z,98799.97
2023-12-30T22:33:38.168Z,98807.81
2023-12-30T22:36:05.039Z,98797.41
2023-12-30T22:38:31.973Z,98792.41
2023-12-30T22:40:58.623Z,98786.00
2023-12-30T22:43:25.364Z,98790.88
2023-12-30T22:45:52.001Z,98790.97
2023-12-30T22:48:20.948Z,98790.47
2023-12-30T22:50:47.469Z,98778.47
2023-12-30T22:53:14.065Z,98769.69
2023-12-30T22:55:40.612Z,98771.94
2023-12-30T22:58:07.160Z,98761.78
2023-12-30T23:00:35.125Z,98755.94
2023-12-30T23:03:02.739Z,98759.22
2023-12-30T23:05:29.434Z,98749.41
2023-12-30T23:07:56.000Z,98744.91
2023-12-30T23:10:22.628Z,98742.28
2023-12-30T23:12:49.281Z,98740.47
2023-12-30T23:15:15.857Z,98727.41
2023-12-30T23:17:42.436Z,98732.84
2023-12-30T23:20:10.083Z,98720.28
2023-12-30T23:22:37.095Z,98723.00
2023-12-30T23:25:06.145Z,98714.19
2023-12-30T23:27:33.821Z,98703.22
2023-12-30T23:30:01.184Z,98697.66
2023-12-30T23:32:27.903Z,98692.03
2023-12-30T23:34:56.117Z,98686.44
2023-12-30T23:37:22.787Z,98682.47
2023-12-30T23:39:49.476Z,98677.94
2023-12-30T23:42:16.060Z,98675.34
2023-12-30T23:44:43.676Z,98667.84
2023-12-30T23:47:10.229Z,98666.84
2023-12-30T23:49:36.792Z,98655.56
2023-12-30T23:52:03.473Z,98649.16
2023-12-30T23:54:30.023Z,98658.63
2023-12-30T23:56:57.074Z,98651.41
2023-12-30T23:59:23.656Z,98644.97
